Time;durP1;ratioP1;P1;durP2;ratioP2;P2;SDS_P1;SDS_P2;PMS_P1;PMS_P2;Temp;Humidity;BMP_temperature;BMP_pressure;BME280_temperature;BME280_humidity;BME280_pressure;Samples;Min_cycle;Max_cycle;Signal;HPM_P1;HPM_P2
2021/01/25 00:02:15;;;;;;;6.75;2.05;;;205.40;2022.40;;;;;;5033301;28;20038;-50
2021/01/25 00:04:41;;;;;;;3.67;1.92;;;204.80;1996.80;;;;;;5033689;28;20044;-50
2021/01/25 00:07:07;;;;;;;6.05;2.20;;;179.80;2048.00;;;;;;5033928;28;20567;-51
2021/01/25 00:09:33;;;;;;;2.92;1.42;;;179.40;2099.20;;;;;;5034140;28;20029;-50
2021/01/25 00:11:58;;;;;;;3.03;1.95;;;179.30;2124.80;;;;;;5033224;28;20107;-50
2021/01/25 00:14:24;;;;;;;6.13;3.20;;;154.50;2150.40;;;;;;5033679;28;20028;-50
2021/01/25 00:20:12;;;;;;;2.22;1.33;;;154.00;2150.40;;;;;;5033178;28;20064;-56
2021/01/25 00:22:38;;;;;;;2.88;1.73;;;153.70;2150.40;;;;;;5033861;28;20037;-50
2021/01/25 00:25:04;;;;;;;2.17;1.38;;;128.80;2176.00;;;;;;5033006;28;20037;-50
2021/01/25 00:27:30;;;;;;;2.80;1.25;;;128.60;2201.60;;;;;;5033414;28;20053;-50
2021/01/25 00:29:56;;;;;;;2.75;1.88;;;128.50;2227.20;;;;;;5033383;28;20384;-50
2021/01/25 00:32:21;;;;;;;2.60;1.40;;;128.40;2201.60;;;;;;5033034;28;20412;-50
2021/01/25 00:34:47;;;;;;;3.15;1.20;;;128.30;2227.20;;;;;;5033035;28;20065;-56
2021/01/25 00:37:13;;;;;;;10.13;3.85;;;128.20;2176.00;;;;;;5033326;28;20040;-51
2021/01/25 00:39:38;;;;;;;2.28;1.30;;;103.30;2176.00;;;;;;5033279;28;20059;-49
2021/01/25 00:42:04;;;;;;;4.18;2.50;;;103.30;2150.40;;;;;;5033195;28;20034;-59
2021/01/25 00:44:30;;;;;;;4.22;3.83;;;103.10;2201.60;;;;;;5032861;28;20610;-50
2021/01/25 00:50:17;;;;;;;5.18;3.25;;;102.90;2227.20;;;;;;5032887;28;20076;-50
2021/01/25 00:52:43;;;;;;;5.28;2.42;;;102.90;2227.20;;;;;;5033137;28;20114;-50
2021/01/25 00:55:13;;;;;;;0.82;0.80;;;102.80;2201.60;;;;;;5033144;28;20025;-50
2021/01/25 00:57:41;;;;;;;0.90;0.68;;;102.60;2227.20;;;;;;5036245;28;20029;-49
2021/01/25 01:00:09;;;;;;;2.70;1.70;;;102.50;2227.20;;;;;;5033898;28;20021;-50
2021/01/25 01:02:35;;;;;;;2.38;1.30;;;102.60;2201.60;;;;;;5034146;28;20387;-49
2021/01/25 01:05:02;;;;;;;3.42;1.88;;;102.50;2227.20;;;;;;5033902;28;20038;-50
2021/01/25 01:07:28;;;;;;;2.08;1.00;;;102.60;2176.00;;;;;;5033805;28;20364;-59
2021/01/25 01:09:54;;;;;;;1.75;0.88;;;102.60;2227.20;;;;;;5033799;28;20144;-49
2021/01/25 01:12:19;;;;;;;3.40;1.85;;;102.40;2227.20;;;;;;5033638;28;20084;-58
2021/01/25 01:14:45;;;;;;;2.03;0.88;;;102.40;2227.20;;;;;;5033865;28;20022;-50
2021/01/25 01:17:10;;;;;;;1.02;0.90;;;102.50;2201.60;;;;;;5033742;28;20468;-49
2021/01/25 01:19:36;;;;;;;0.65;0.60;;;102.40;2227.20;;;;;;5033691;28;20033;-59
2021/01/25 01:22:02;;;;;;;3.83;1.23;;;102.40;2227.20;;;;;;5033757;28;20056;-50
2021/01/25 01:24:28;;;;;;;3.63;1.95;;;77.60;2227.20;;;;;;5033536;28;20167;-59
2021/01/25 01:26:53;;;;;;;4.82;1.95;;;77.60;2227.20;;;;;;5033636;28;20025;-49
2021/01/25 01:29:19;;;;;;;3.83;2.10;;;77.60;2227.20;;;;;;5033338;28;20084;-50
2021/01/25 01:31:45;;;;;;;8.75;5.05;;;77.70;2227.20;;;;;;5033131;28;20017;-50
2021/01/25 01:34:11;;;;;;;3.88;1.65;;;102.40;2227.20;;;;;;5033347;28;20037;-59
2021/01/25 01:36:37;;;;;;;2.88;1.60;;;77.70;2227.20;;;;;;5033218;28;20184;-49
2021/01/25 01:39:03;;;;;;;5.10;2.10;;;77.70;2227.20;;;;;;5033593;28;20025;-51
2021/01/25 01:41:39;;;;;;;5.18;2.30;;;102.40;2201.60;;;;;;5033245;28;20048;-49
2021/01/25 01:44:14;;;;;;;2.42;1.08;;;77.70;2227.20;;;;;;5033202;28;20038;-50
2021/01/25 01:46:43;;;;;;;2.15;1.20;;;102.50;2176.00;;;;;;5032938;28;20379;-49
2021/01/25 01:49:10;;;;;;;4.32;0.93;;;102.50;2176.00;;;;;;5033063;28;20534;-51
2021/01/25 01:51:39;;;;;;;8.02;5.55;;;77.70;2201.60;;;;;;5033153;28;20017;-49
2021/01/25 01:54:06;;;;;;;2.25;1.52;;;102.50;2201.60;;;;;;5033144;28;20068;-50
2021/01/25 01:56:34;;;;;;;8.88;3.53;;;77.70;2176.00;;;;;;5033070;28;20036;-50
2021/01/25 01:58:59;;;;;;;2.92;1.67;;;77.70;2201.60;;;;;;5032880;28;20036;-59
2021/01/25 02:01:25;;;;;;;1.63;1.00;;;77.60;2201.60;;;;;;5032957;28;20037;-59
2021/01/25 02:03:51;;;;;;;1.67;0.98;;;77.60;2176.00;;;;;;5050973;28;20552;-49
2021/01/25 02:06:18;;;;;;;4.65;2.58;;;77.50;2227.20;;;;;;5052441;28;20573;-50
2021/01/25 02:08:46;;;;;;;4.45;1.38;;;77.50;2227.20;;;;;;5051922;28;20090;-50
2021/01/25 02:11:13;;;;;;;2.40;1.45;;;77.50;2201.60;;;;;;5052722;28;20040;-49
2021/01/25 02:13:39;;;;;;;2.20;1.02;;;77.50;2201.60;;;;;;5052386;28;20029;-50
2021/01/25 02:16:05;;;;;;;2.38;1.45;;;77.50;2227.20;;;;;;5052491;28;20120;-50
2021/01/25 02:18:34;;;;;;;4.05;1.90;;;77.60;2227.20;;;;;;5052347;28;20060;-49
2021/01/25 02:21:02;;;;;;;5.53;2.85;;;77.50;2227.20;;;;;;5052435;28;20028;-49
2021/01/25 02:24:12;;;;;;;2.65;1.45;;;77.50;2201.60;;;;;;5052346;28;20025;-49
2021/01/25 02:26:52;;;;;;;3.72;2.30;;;77.50;2124.80;;;;;;5042369;28;20602;-60
2021/01/25 02:29:19;;;;;;;1.50;0.80;;;77.40;2124.80;;;;;;5039065;28;20083;-50
2021/01/25 02:31:45;;;;;;;4.65;1.92;;;77.30;2150.40;;;;;;5038602;28;20487;-51
2021/01/25 02:34:14;;;;;;;3.70;1.50;;;77.40;2150.40;;;;;;5040463;28;20037;-50
2021/01/25 02:36:40;;;;;;;4.18;2.75;;;77.60;2124.80;;;;;;5039010;28;20092;-60
2021/01/25 02:39:06;;;;;;;2.25;1.20;;;77.60;2124.80;;;;;;5038919;28;20028;-57
2021/01/25 02:41:32;;;;;;;2.35;1.10;;;77.70;2073.60;;;;;;5040513;28;20075;-54
2021/01/25 02:43:58;;;;;;;2.03;1.15;;;77.50;2099.20;;;;;;5038889;28;20088;-59
2021/01/25 02:46:25;;;;;;;3.13;1.70;;;77.50;2099.20;;;;;;5038938;28;20029;-59
2021/01/25 02:48:51;;;;;;;3.22;1.20;;;77.60;2073.60;;;;;;5040165;28;20112;-49
2021/01/25 02:51:17;;;;;;;4.80;3.25;;;77.70;2073.60;;;;;;5038702;28;20520;-49
2021/01/25 02:53:44;;;;;;;2.30;1.40;;;77.60;2099.20;;;;;;5038932;28;20037;-50
2021/01/25 02:56:11;;;;;;;5.18;3.83;;;77.60;2099.20;;;;;;5039991;28;20037;-50
2021/01/25 02:58:37;;;;;;;3.45;2.17;;;77.60;2099.20;;;;;;5038479;28;20134;-58
2021/01/25 03:01:02;;;;;;;2.08;1.13;;;77.70;2099.20;;;;;;5046536;28;20033;-54
2021/01/25 03:03:30;;;;;;;1.42;0.98;;;77.60;2073.60;;;;;;5037511;28;20404;-50
2021/01/25 03:05:57;;;;;;;3.50;1.42;;;77.60;2099.20;;;;;;5031794;28;20033;-50
2021/01/25 03:08:27;;;;;;;2.60;1.40;;;77.60;2099.20;;;;;;5031804;28;20467;-49
2021/01/25 03:10:54;;;;;;;1.67;1.10;;;77.60;2099.20;;;;;;5031666;28;20040;-58
2021/01/25 03:13:27;;;;;;;1.50;1.02;;;77.50;2099.20;;;;;;5031567;28;20033;-50
2021/01/25 03:15:56;;;;;;;1.70;1.20;;;77.70;2124.80;;;;;;5031777;28;20434;-49
2021/01/25 03:18:22;;;;;;;1.90;1.00;;;77.60;2124.80;;;;;;5031436;28;20026;-50
2021/01/25 03:20:51;;;;;;;2.40;1.40;;;77.50;2150.40;;;;;;5031381;28;20471;-50
2021/01/25 03:23:18;;;;;;;2.00;1.27;;;77.40;2176.00;;;;;;5031294;28;20045;-50
2021/01/25 03:25:45;;;;;;;1.55;0.93;;;77.40;2176.00;;;;;;5031458;28;20075;-57
2021/01/25 03:28:11;;;;;;;2.10;1.25;;;77.40;2176.00;;;;;;5031260;28;20036;-52
2021/01/25 03:30:37;;;;;;;1.63;1.13;;;77.40;2201.60;;;;;;5031269;28;20025;-49
2021/01/25 03:33:04;;;;;;;1.63;1.23;;;77.40;2176.00;;;;;;5030754;28;20049;-51
2021/01/25 03:35:29;;;;;;;4.03;2.00;;;77.50;2176.00;;;;;;5031076;28;20033;-49
2021/01/25 03:37:55;;;;;;;6.85;4.07;;;77.50;2176.00;;;;;;5031119;28;20032;-49
2021/01/25 03:40:21;;;;;;;2.00;1.25;;;77.60;2176.00;;;;;;5030897;28;20030;-55
2021/01/25 03:42:46;;;;;;;2.97;1.33;;;77.60;2176.00;;;;;;5031235;28;20013;-49
2021/01/25 03:45:12;;;;;;;2.00;1.40;;;77.50;2176.00;;;;;;5030807;28;20099;-51
2021/01/25 03:47:38;;;;;;;3.15;1.52;;;77.60;2176.00;;;;;;5030741;28;20101;-49
2021/01/25 03:50:05;;;;;;;2.80;1.30;;;77.60;2176.00;;;;;;5030864;28;20057;-49
2021/01/25 03:52:30;;;;;;;2.47;1.60;;;77.60;2176.00;;;;;;5030582;28;20113;-51
2021/01/25 03:54:56;;;;;;;2.75;1.60;;;77.60;2150.40;;;;;;5030981;28;20780;-49
2021/01/25 03:57:22;;;;;;;3.50;2.38;;;77.60;2150.40;;;;;;5030982;28;20387;-49
2021/01/25 03:59:48;;;;;;;5.10;3.97;;;77.60;2176.00;;;;;;5030607;28;20022;-60
2021/01/25 04:02:13;;;;;;;5.28;3.78;;;77.60;2150.40;;;;;;5030618;28;20392;-50
2021/01/25 04:04:43;;;;;;;13.68;9.15;;;77.60;2150.40;;;;;;5030374;28;20034;-60
2021/01/25 04:07:10;;;;;;;4.63;2.40;;;77.70;2150.40;;;;;;5030474;28;20494;-50
2021/01/25 04:09:37;;;;;;;4.43;2.10;;;102.40;2124.80;;;;;;5030826;28;20072;-49
2021/01/25 04:12:03;;;;;;;2.75;1.80;;;102.50;2099.20;;;;;;5030510;28;20036;-50
2021/01/25 04:14:29;;;;;;;3.47;2.30;;;102.50;2099.20;;;;;;5030409;28;20052;-49
2021/01/25 04:16:55;;;;;;;2.05;1.30;;;77.70;2099.20;;;;;;5030509;28;20103;-50
2021/01/25 04:19:20;;;;;;;2.80;1.92;;;102.40;2099.20;;;;;;5030314;28;20111;-50
2021/01/25 04:21:46;;;;;;;1.55;0.95;;;77.70;2124.80;;;;;;5030382;28;20472;-49
2021/01/25 04:24:11;;;;;;;2.20;1.30;;;77.60;2124.80;;;;;;5029759;28;20499;-57
2021/01/25 04:26:41;;;;;;;2.65;1.52;;;77.60;2099.20;;;;;;5030361;28;20430;-51
2021/01/25 04:29:11;;;;;;;2.80;1.35;;;77.60;2099.20;;;;;;5029911;28;20538;-50
2021/01/25 04:31:37;;;;;;;1.73;0.98;;;77.60;2124.80;;;;;;5029554;28;20413;-49
2021/01/25 04:34:04;;;;;;;3.30;1.88;;;77.70;2073.60;;;;;;5030095;28;20049;-50
2021/01/25 04:36:30;;;;;;;2.25;1.50;;;102.40;2073.60;;;;;;5030148;28;20029;-49
2021/01/25 04:38:56;;;;;;;2.65;1.40;;;77.70;2099.20;;;;;;5030447;28;20091;-60
2021/01/25 04:41:22;;;;;;;2.38;1.60;;;77.70;2099.20;;;;;;5030269;28;20044;-49
2021/01/25 04:43:48;;;;;;;4.00;2.83;;;102.40;2073.60;;;;;;5029947;28;20033;-50
2021/01/25 04:46:14;;;;;;;2.92;1.70;;;102.50;2048.00;;;;;;5030167;28;20025;-58
2021/01/25 04:48:42;;;;;;;6.03;4.03;;;102.40;2073.60;;;;;;5029975;28;20117;-50
2021/01/25 04:51:08;;;;;;;4.70;1.90;;;102.40;2073.60;;;;;;5029820;28;20025;-50
2021/01/25 04:53:34;;;;;;;5.22;2.63;;;102.50;2048.00;;;;;;5030270;28;20091;-49
2021/01/25 04:56:00;;;;;;;4.38;2.25;;;77.70;2048.00;;;;;;5029869;28;20037;-49
2021/01/25 04:58:26;;;;;;;3.80;2.47;;;102.40;2048.00;;;;;;5030113;28;20025;-50
2021/01/25 05:00:52;;;;;;;2.70;1.70;;;102.50;2048.00;;;;;;5029926;28;20163;-50
2021/01/25 05:03:18;;;;;;;2.53;1.40;;;102.50;2048.00;;;;;;5029577;28;20036;-50
2021/01/25 05:05:43;;;;;;;2.60;1.48;;;102.50;2022.40;;;;;;5029899;28;20033;-50
2021/01/25 05:08:09;;;;;;;2.90;1.70;;;102.60;1996.80;;;;;;5029748;28;20022;-50
2021/01/25 05:10:35;;;;;;;2.80;1.58;;;102.60;2022.40;;;;;;5030037;28;20036;-50
2021/01/25 05:13:01;;;;;;;4.03;2.47;;;102.60;2022.40;;;;;;5029641;28;20057;-51
2021/01/25 05:15:29;;;;;;;3.78;1.95;;;102.70;1996.80;;;;;;5029946;28;20460;-49
2021/01/25 05:17:56;;;;;;;4.18;2.47;;;102.70;1996.80;;;;;;5029868;28;20373;-49
2021/01/25 05:20:27;;;;;;;4.55;2.80;;;102.60;1996.80;;;;;;5029628;28;20048;-50
2021/01/25 05:22:53;;;;;;;5.28;2.10;;;102.60;1996.80;;;;;;5029846;28;20529;-50
2021/01/25 05:25:32;;;;;;;4.55;2.10;;;102.70;1996.80;;;;;;5029721;28;20041;-58
2021/01/25 05:27:59;;;;;;;5.35;4.85;;;102.80;1971.20;;;;;;5029631;28;20018;-50
2021/01/25 05:30:26;;;;;;;4.00;2.20;;;102.70;1971.20;;;;;;5029775;28;20095;-52
2021/01/25 05:32:57;;;;;;;3.50;1.85;;;102.70;1945.60;;;;;;5029183;28;20507;-50
2021/01/25 05:35:28;;;;;;;4.93;2.20;;;102.80;1945.60;;;;;;5029681;28;20030;-49
2021/01/25 05:37:59;;;;;;;4.60;2.03;;;102.80;1945.60;;;;;;5029736;28;20021;-50
2021/01/25 05:40:30;;;;;;;3.20;1.80;;;102.70;1971.20;;;;;;5029787;28;20384;-50
2021/01/25 05:42:56;;;;;;;2.70;1.83;;;102.70;1971.20;;;;;;5030800;28;20053;-58
2021/01/25 05:45:23;;;;;;;2.60;1.45;;;102.70;1945.60;;;;;;5032850;28;20037;-49
2021/01/25 05:47:52;;;;;;;2.40;1.58;;;102.70;1945.60;;;;;;5032881;28;20014;-50
2021/01/25 05:50:27;;;;;;;12.88;10.07;;;102.80;1945.60;;;;;;5033154;28;20021;-50
2021/01/25 05:52:54;;;;;;;4.68;2.72;;;102.80;1945.60;;;;;;5033116;28;20100;-58
2021/01/25 05:55:20;;;;;;;3.50;2.00;;;102.80;1920.00;;;;;;5032907;28;20029;-50
2021/01/25 05:57:46;;;;;;;4.78;2.30;;;102.80;1920.00;;;;;;5033048;28;20017;-49
2021/01/25 06:00:12;;;;;;;3.95;1.83;;;102.70;1945.60;;;;;;5032757;28;20037;-50
2021/01/25 06:02:42;;;;;;;6.43;2.78;;;102.80;1920.00;;;;;;5032519;28;20453;-56
2021/01/25 06:05:11;;;;;;;3.70;2.47;;;102.70;1945.60;;;;;;5032513;28;20111;-49
2021/01/25 06:07:40;;;;;;;3.25;1.90;;;102.70;1945.60;;;;;;5032986;28;20380;-49
2021/01/25 06:10:09;;;;;;;3.50;1.95;;;102.70;1945.60;;;;;;5033018;28;20029;-50
2021/01/25 06:12:39;;;;;;;4.20;2.20;;;102.80;1945.60;;;;;;5032991;28;20025;-49
2021/01/25 06:15:08;;;;;;;3.28;1.98;;;102.80;1920.00;;;;;;5032651;28;20108;-59
2021/01/25 06:17:35;;;;;;;5.22;2.75;;;102.80;1920.00;;;;;;5032505;28;20422;-49
2021/01/25 06:20:06;;;;;;;4.60;2.45;;;102.80;1945.60;;;;;;5032468;28;20033;-50
2021/01/25 06:22:32;;;;;;;3.08;1.85;;;102.80;1945.60;;;;;;5032434;28;20037;-53
2021/01/25 06:25:00;;;;;;;5.28;2.17;;;102.80;1945.60;;;;;;5032374;28;20038;-49
2021/01/25 06:27:26;;;;;;;4.38;2.47;;;102.90;1945.60;;;;;;5032583;28;20468;-49
2021/01/25 06:30:00;;;;;;;3.97;2.40;;;103.00;1920.00;;;;;;5032200;28;20476;-48
2021/01/25 06:32:32;;;;;;;;;;;103.00;1894.40;;;;;;5032741;28;20388;-49
2021/01/25 06:34:59;;;;;;;6.45;3.72;;;103.00;1894.40;;;;;;5032367;28;19909;-49
2021/01/25 06:37:28;;;;;;;4.28;2.38;;;102.90;1894.40;;;;;;5032369;28;20028;-50
2021/01/25 06:39:57;;;;;;;3.95;2.55;;;102.80;1920.00;;;;;;5032227;28;20071;-49
2021/01/25 06:42:31;;;;;;;5.32;2.10;;;102.90;1920.00;;;;;;5032130;28;20541;-49
2021/01/25 06:45:00;;;;;;;3.72;2.10;;;103.00;1894.40;;;;;;5032245;28;20037;-50
2021/01/25 06:47:27;;;;;;;5.40;2.28;;;103.00;1868.80;;;;;;5032282;28;20025;-60
2021/01/25 06:49:53;;;;;;;19.48;12.93;;;103.00;1843.20;;;;;;5032040;28;20081;-49
2021/01/25 06:52:19;;;;;;;4.22;2.42;;;103.10;1868.80;;;;;;5031846;28;20025;-49
2021/01/25 06:54:45;;;;;;;8.40;7.25;;;103.10;1868.80;;;;;;5031961;28;20539;-49
2021/01/25 06:57:25;;;;;;;9.73;6.72;;;103.10;1843.20;;;;;;5031538;28;20108;-60
2021/01/25 06:59:51;;;;;;;6.05;3.00;;;103.10;1843.20;;;;;;5031563;28;20037;-60
2021/01/25 07:02:19;;;;;;;6.88;3.08;;;102.90;1868.80;;;;;;5031683;28;20119;-50
2021/01/25 07:04:45;;;;;;;3.58;2.35;;;102.90;1868.80;;;;;;5031749;28;20041;-60
2021/01/25 07:07:28;;;;;;;5.63;2.97;;;103.00;1920.00;;;;;;5031597;28;20107;-51
2021/01/25 07:09:57;;;;;;;6.03;3.38;;;103.00;1894.40;;;;;;5031683;28;20020;-51
2021/01/25 07:12:24;;;;;;;7.80;5.07;;;103.00;1843.20;;;;;;5031760;28;20030;-50
2021/01/25 07:14:51;;;;;;;12.13;7.40;;;103.00;1843.20;;;;;;5031362;28;20029;-50
2021/01/25 07:17:16;;;;;;;16.08;10.80;;;103.00;1843.20;;;;;;5031521;28;20029;-49
2021/01/25 07:19:43;;;;;;;209.80;123.25;;;103.10;1843.20;;;;;;5031500;28;20111;-51
2021/01/25 07:22:09;;;;;;;113.15;77.68;;;103.20;1817.60;;;;;;5031204;28;20100;-50
2021/01/25 07:24:37;;;;;;;164.00;109.53;;;103.20;1843.20;;;;;;5031269;28;20453;-49
2021/01/25 07:27:03;;;;;;;136.02;95.43;;;103.20;1817.60;;;;;;5031464;28;20036;-51
2021/01/25 07:29:29;;;;;;;50.33;44.15;;;103.30;1817.60;;;;;;5031273;28;20060;-50
2021/01/25 07:31:56;;;;;;;32.70;23.38;;;103.20;1817.60;;;;;;5030854;28;20436;-49
2021/01/25 07:34:23;;;;;;;18.95;16.73;;;103.20;1817.60;;;;;;5030829;28;20058;-49
2021/01/25 07:36:49;;;;;;;6.13;3.97;;;103.20;1817.60;;;;;;5030875;28;20042;-49
2021/01/25 07:39:17;;;;;;;19.17;16.10;;;103.20;1817.60;;;;;;5031062;28;20040;-58
2021/01/25 07:41:44;;;;;;;8.90;5.72;;;103.20;1817.60;;;;;;5031303;28;20029;-52
2021/01/25 07:44:11;;;;;;;23.17;15.45;;;103.20;1792.00;;;;;;5030640;28;20033;-50
2021/01/25 07:46:38;;;;;;;19.63;12.95;;;103.20;1766.40;;;;;;5031031;28;20021;-52
2021/01/25 07:49:04;;;;;;;23.08;19.40;;;103.30;1792.00;;;;;;5028568;28;20109;-53
2021/01/25 07:51:35;;;;;;;12.65;9.60;;;103.20;1792.00;;;;;;5029053;28;20518;-55
2021/01/25 07:54:02;;;;;;;19.20;13.88;;;103.30;1792.00;;;;;;5028906;28;20052;-51
2021/01/25 07:56:28;;;;;;;6.95;4.93;;;103.20;1766.40;;;;;;5024198;28;20029;-56
2021/01/25 07:59:14;;;;;;;46.45;26.67;;;103.30;1766.40;;;;;;5028217;28;20025;-54
2021/01/25 08:01:52;;;;;;;13.73;10.57;;;128.40;1740.80;;;;;;5028412;28;20491;-59
2021/01/25 08:04:22;;;;;;;13.63;6.10;;;179.80;1536.00;;;;;;5028101;28;20120;-58
2021/01/25 08:06:51;;;;;;;9.10;7.15;;;231.10;1280.00;;;;;;5027335;28;20428;-57
2021/01/25 08:09:20;;;;;;;5.97;3.92;;;282.00;1177.60;;;;;;5028655;28;20052;-58
2021/01/25 08:11:46;;;;;;;24.75;22.15;;;308.10;1049.60;;;;;;5027914;28;20018;-56
2021/01/25 08:14:17;;;;;;;13.48;11.02;;;332.80;1049.60;;;;;;5030404;28;20029;-56
2021/01/25 08:16:59;;;;;;;9.38;7.80;;;333.40;998.40;;;;;;5048620;28;20025;-56
2021/01/25 08:19:50;;;;;;;29.27;25.00;;;358.80;947.20;;;;;;5050442;28;20467;-56
2021/01/25 08:22:44;;;;;;;38.15;34.15;;;384.20;896.00;;;;;;5050598;28;20379;-53
2021/01/25 08:25:20;;;;;;;;;;;384.50;844.80;;;;;;5050288;28;20142;-53
2021/01/25 08:28:09;;;;;;;8.77;7.25;;;409.60;819.20;;;;;;5050187;28;20354;-53
2021/01/25 08:30:43;;;;;;;14.73;13.27;;;410.10;793.60;;;;;;5050139;28;20039;-53
2021/01/25 08:33:11;;;;;;;10.35;9.35;;;435.20;793.60;;;;;;5049672;28;20120;-54
2021/01/25 08:35:51;;;;;;;16.48;13.23;;;435.30;742.40;;;;;;5050204;28;20090;-53
2021/01/25 08:38:37;;;;;;;13.25;11.85;;;436.00;716.80;;;;;;5050240;28;20071;-66
2021/01/25 08:41:32;;;;;;;10.18;9.27;;;461.10;716.80;;;;;;5050135;28;20025;-66
2021/01/25 08:44:01;;;;;;;8.38;7.35;;;436.00;665.60;;;;;;5049980;28;20031;-61
2021/01/25 08:46:38;;;;;;;6.70;4.47;;;461.60;691.20;;;;;;5050007;28;20025;-67
2021/01/25 08:49:35;;;;;;;5.57;3.85;;;486.90;640.00;;;;;;5049855;28;20021;-54
2021/01/25 08:52:09;;;;;;;7.10;5.78;;;487.20;640.00;;;;;;5047683;28;20036;-66
2021/01/25 08:54:39;;;;;;;10.77;8.98;;;486.80;640.00;;;;;;5047668;28;20152;-53
2021/01/25 08:57:21;;;;;;;4.82;3.85;;;461.30;691.20;;;;;;5047594;28;20116;-53
2021/01/25 08:59:47;;;;;;;18.35;16.50;;;461.00;691.20;;;;;;5047705;28;20033;-53
2021/01/25 09:02:19;;;;;;;6.18;4.80;;;435.60;716.80;;;;;;5047462;28;20070;-53
2021/01/25 09:04:45;;;;;;;7.65;6.95;;;435.90;691.20;;;;;;5047716;28;20041;-55
2021/01/25 09:07:17;;;;;;;9.23;5.07;;;461.10;691.20;;;;;;5047380;28;20407;-62
2021/01/25 09:09:43;;;;;;;2.78;1.88;;;486.50;665.60;;;;;;5047601;28;20037;-56
2021/01/25 09:12:10;;;;;;;4.18;3.10;;;512.10;640.00;;;;;;5047431;28;20510;-54
2021/01/25 09:14:36;;;;;;;77.32;70.43;;;487.10;614.40;;;;;;5047745;28;20051;-53
2021/01/25 09:17:03;;;;;;;8.32;7.53;;;486.70;640.00;;;;;;5048666;28;20120;-55
2021/01/25 09:19:28;;;;;;;5.65;4.82;;;486.80;640.00;;;;;;5051234;28;20029;-53
2021/01/25 09:21:54;;;;;;;7.00;6.00;;;486.50;640.00;;;;;;5051436;28;20075;-53
2021/01/25 09:24:20;;;;;;;14.55;9.63;;;486.50;640.00;;;;;;5051134;28;20057;-54
2021/01/25 09:26:46;;;;;;;40.25;32.90;;;486.70;614.40;;;;;;5051497;28;20502;-66
2021/01/25 09:29:12;;;;;;;38.90;31.50;;;486.50;640.00;;;;;;5052780;28;20040;-66
2021/01/25 09:31:37;;;;;;;19.23;13.10;;;461.60;691.20;;;;;;5053237;28;20082;-55
2021/01/25 09:34:03;;;;;;;60.53;50.40;;;487.20;614.40;;;;;;5053072;28;20064;-68
2021/01/25 09:36:29;;;;;;;6.43;3.08;;;487.30;614.40;;;;;;5053248;28;20384;-66
2021/01/25 09:38:55;;;;;;;31.08;27.83;;;487.30;640.00;;;;;;5053254;28;20033;-65
2021/01/25 09:41:21;;;;;;;14.73;13.38;;;461.50;640.00;;;;;;5053065;28;20017;-54
2021/01/25 09:43:47;;;;;;;8.55;7.70;;;487.10;614.40;;;;;;5053038;28;20058;-54
2021/01/25 09:46:12;;;;;;;15.23;5.97;;;486.80;614.40;;;;;;5053317;28;20127;-54
2021/01/25 09:48:38;;;;;;;6.72;5.68;;;486.70;665.60;;;;;;5052864;28;20096;-54
2021/01/25 09:51:04;;;;;;;20.67;18.83;;;486.50;614.40;;;;;;5053079;28;20036;-54
2021/01/25 09:53:30;;;;;;;2.97;2.20;;;486.40;640.00;;;;;;5052064;28;20452;-66
2021/01/25 09:55:57;;;;;;;6.20;4.47;;;486.40;614.40;;;;;;5053193;28;20116;-66
2021/01/25 09:58:23;;;;;;;70.10;62.70;;;435.40;665.60;;;;;;5052649;28;20065;-55
2021/01/25 10:00:50;;;;;;;38.28;35.13;;;460.80;665.60;;;;;;5047509;28;20095;-54
2021/01/25 10:03:17;;;;;;;8.73;6.95;;;435.60;691.20;;;;;;5040635;28;20018;-52
2021/01/25 10:05:43;;;;;;;6.88;5.97;;;435.90;691.20;;;;;;5041199;28;20033;-59
2021/01/25 10:08:10;;;;;;;3.35;2.45;;;435.80;691.20;;;;;;5042046;28;20441;-53
2021/01/25 10:10:36;;;;;;;13.25;12.15;;;435.90;691.20;;;;;;5040925;28;20031;-53
2021/01/25 10:13:02;;;;;;;4.10;2.35;;;410.50;716.80;;;;;;5036321;28;20112;-55
2021/01/25 10:15:28;;;;;;;10.40;5.60;;;410.40;742.40;;;;;;5032571;28;20032;-54
2021/01/25 10:17:53;;;;;;;5.00;3.72;;;410.00;768.00;;;;;;5032561;28;20112;-53
2021/01/25 10:20:19;;;;;;;7.07;3.90;;;384.80;742.40;;;;;;5032418;28;20024;-53
2021/01/25 10:22:45;;;;;;;8.85;7.85;;;384.30;768.00;;;;;;5032575;28;20034;-53
2021/01/25 10:25:11;;;;;;;20.23;18.42;;;358.80;793.60;;;;;;5032184;28;20033;-53
2021/01/25 10:27:38;;;;;;;8.10;6.07;;;333.50;870.40;;;;;;5032691;28;20395;-65
2021/01/25 10:30:07;;;;;;;21.23;19.17;;;308.10;947.20;;;;;;5031856;28;20103;-53
2021/01/25 10:32:33;;;;;;;12.95;9.63;;;307.80;921.60;;;;;;5032132;28;20450;-53
2021/01/25 10:34:59;;;;;;;14.65;13.25;;;307.80;947.20;;;;;;5032187;28;20045;-63
2021/01/25 10:37:26;;;;;;;11.90;5.15;;;307.40;947.20;;;;;;5032368;28;20032;-53
2021/01/25 10:39:51;;;;;;;3.35;2.13;;;307.40;972.80;;;;;;5032045;28;20057;-64
2021/01/25 10:42:17;;;;;;;3.33;1.83;;;307.30;972.80;;;;;;5032194;28;20057;-53
2021/01/25 10:44:43;;;;;;;7.00;4.05;;;307.20;972.80;;;;;;5031877;28;20044;-54
2021/01/25 10:47:12;;;;;;;4.72;2.85;;;282.30;998.40;;;;;;5031888;28;20021;-55
2021/01/25 10:49:38;;;;;;;4.50;2.13;;;282.10;1024.00;;;;;;5031997;28;20389;-52
2021/01/25 10:52:03;;;;;;;8.65;4.40;;;281.60;1024.00;;;;;;5032034;28;20093;-53
2021/01/25 10:54:29;;;;;;;12.20;6.53;;;281.90;1024.00;;;;;;5031729;28;20029;-53
2021/01/25 10:56:55;;;;;;;9.40;5.28;;;281.90;1024.00;;;;;;5032083;28;20025;-66
2021/01/25 10:59:20;;;;;;;23.00;9.50;;;282.00;998.40;;;;;;5031752;28;20084;-67
2021/01/25 11:01:46;;;;;;;5.65;2.60;;;281.90;1024.00;;;;;;5031745;28;20423;-65
2021/01/25 11:04:12;;;;;;;27.17;19.15;;;282.00;1024.00;;;;;;5031556;28;20466;-66
2021/01/25 11:06:38;;;;;;;40.25;28.70;;;282.20;998.40;;;;;;5036940;28;20489;-53
2021/01/25 11:09:04;;;;;;;6.57;2.83;;;282.20;998.40;;;;;;5034137;28;20084;-51
2021/01/25 11:11:29;;;;;;;33.90;15.90;;;282.40;972.80;;;;;;5031738;28;20075;-53
2021/01/25 11:13:55;;;;;;;17.45;9.35;;;282.40;1024.00;;;;;;5034416;28;20025;-65
2021/01/25 11:16:21;;;;;;;8.70;6.22;;;307.30;998.40;;;;;;5051281;28;20024;-65
2021/01/25 11:18:48;;;;;;;13.35;9.95;;;307.40;998.40;;;;;;5051335;28;20469;-65
2021/01/25 11:21:13;;;;;;;2.28;1.42;;;307.60;972.80;;;;;;5051366;28;20025;-65
2021/01/25 11:23:39;;;;;;;18.48;6.53;;;307.30;1049.60;;;;;;5050998;28;20032;-53
2021/01/25 11:26:05;;;;;;;16.85;9.80;;;307.30;1024.00;;;;;;5047302;28;20442;-64
2021/01/25 11:28:30;;;;;;;16.35;9.13;;;307.40;998.40;;;;;;5029950;28;20109;-65
2021/01/25 11:30:56;;;;;;;24.88;12.77;;;307.40;998.40;;;;;;5029332;28;20061;-53
2021/01/25 11:33:22;;;;;;;45.28;34.97;;;307.60;998.40;;;;;;5029011;28;20049;-56
2021/01/25 11:35:47;;;;;;;19.85;15.23;;;282.20;972.80;;;;;;5029638;28;20358;-54
2021/01/25 11:38:13;;;;;;;104.78;73.22;;;307.20;998.40;;;;;;5029676;28;20022;-57
2021/01/25 11:40:39;;;;;;;67.65;44.35;;;307.30;998.40;;;;;;5028426;28;20083;-57
2021/01/25 11:43:05;;;;;;;18.50;8.70;;;282.20;998.40;;;;;;5029681;28;20468;-66
2021/01/25 11:45:31;;;;;;;24.83;12.10;;;281.80;1024.00;;;;;;5028620;28;20483;-53
2021/01/25 11:47:56;;;;;;;48.50;26.30;;;256.80;1024.00;;;;;;5029396;28;20051;-58
2021/01/25 11:50:22;;;;;;;130.02;78.38;;;256.80;1024.00;;;;;;5028435;28;20030;-54
2021/01/25 11:52:48;;;;;;;20.17;13.30;;;281.60;1024.00;;;;;;5029063;28;20029;-55
2021/01/25 11:55:14;;;;;;;11.57;6.25;;;282.10;1024.00;;;;;;5029162;28;20033;-55
2021/01/25 11:57:39;;;;;;;108.80;68.60;;;282.20;972.80;;;;;;5028502;28;20472;-55
2021/01/25 12:00:06;;;;;;;27.48;17.25;;;282.20;998.40;;;;;;5030037;28;20041;-67
2021/01/25 12:02:32;;;;;;;14.88;8.30;;;282.20;972.80;;;;;;5030562;28;20040;-64
2021/01/25 12:04:57;;;;;;;35.38;17.00;;;281.80;998.40;;;;;;5030613;28;20392;-54
2021/01/25 12:07:23;;;;;;;19.35;10.13;;;281.70;1049.60;;;;;;5030814;28;20051;-53
2021/01/25 12:09:49;;;;;;;28.73;18.02;;;256.80;1024.00;;;;;;5030449;28;20044;-64
2021/01/25 12:12:15;;;;;;;32.90;15.98;;;256.30;1075.20;;;;;;5027934;28;20029;-58
2021/01/25 12:14:40;;;;;;;34.28;18.20;;;256.40;1075.20;;;;;;5028605;28;20057;-63
2021/01/25 12:17:06;;;;;;;42.65;20.20;;;256.00;1100.80;;;;;;5028914;28;20029;-62
2021/01/25 12:19:32;;;;;;;63.33;32.65;;;256.10;1100.80;;;;;;5028710;28;20399;-56
2021/01/25 12:21:58;;;;;;;48.30;29.88;;;256.40;1100.80;;;;;;5028588;28;20501;-58
2021/01/25 12:24:23;;;;;;;28.15;15.88;;;256.20;1100.80;;;;;;5028280;28;20041;-54
2021/01/25 12:26:50;;;;;;;25.25;13.55;;;256.10;1075.20;;;;;;5028489;28;20052;-58
2021/01/25 12:29:17;;;;;;;23.88;16.67;;;256.10;1100.80;;;;;;5028815;28;20057;-53